Time;durP1;ratioP1;P1;durP2;ratioP2;P2;SDS_P1;SDS_P2;PMS_P1;PMS_P2;Temp;Humidity;BMP_temperature;BMP_pressure;BME280_temperature;BME280_humidity;BME280_pressure;Samples;Min_cycle;Max_cycle;Signal;HPM_P1;HPM_P2
2023/05/17 00:01:13;;;;;;;0.73;0.73;;;;;;;7.14;100.00;100896.97;4984386;28;20197;-87
2023/05/17 00:03:38;;;;;;;11.73;2.03;;;;;;;7.13;100.00;100889.94;4996305;28;20185;-87
2023/05/17 00:06:04;;;;;;;7.77;1.50;;;;;;;7.11;100.00;100905.69;5003409;28;20640;-87
2023/05/17 00:08:30;;;;;;;2.07;1.27;;;;;;;7.07;100.00;100904.59;5005301;28;20543;-87
2023/05/17 00:10:55;;;;;;;1.23;1.07;;;;;;;7.08;100.00;100898.88;5007843;28;20575;-88
2023/05/17 00:13:21;;;;;;;1.50;0.87;;;;;;;7.05;100.00;100893.19;4990673;28;20195;-86
2023/05/17 00:15:46;;;;;;;4.33;1.20;;;;;;;7.02;100.00;100902.72;4997985;28;20216;-87
2023/05/17 00:18:11;;;;;;;0.50;0.40;;;;;;;7.04;100.00;100897.00;5010445;28;20205;-87
2023/05/17 00:20:37;;;;;;;2.23;1.50;;;;;;;7.01;100.00;100892.13;5012043;28;20278;-86
2023/05/17 00:23:03;;;;;;;0.67;0.67;;;;;;;7.00;100.00;100904.91;4985896;28;20181;-86
2023/05/17 00:25:29;;;;;;;0.63;0.63;;;;;;;6.99;100.00;100900.56;4995913;28;20236;-86
2023/05/17 00:27:54;;;;;;;1.17;0.87;;;;;;;7.01;100.00;100894.84;5016334;28;20204;-86
2023/05/17 00:30:19;;;;;;;1.50;1.40;;;;;;;7.01;100.00;100898.38;4995786;28;20212;-86
2023/05/17 00:32:45;;;;;;;0.30;0.23;;;;;;;7.00;100.00;100896.75;4987516;28;20187;-87
2023/05/17 00:35:11;;;;;;;2.07;0.67;;;;;;;7.05;100.00;100891.28;4981840;28;20188;-86
2023/05/17 00:37:37;;;;;;;0.97;0.67;;;;;;;7.10;100.00;100887.78;5010350;28;20180;-87
2023/05/17 00:40:04;;;;;;;0.27;0.27;;;;;;;7.12;100.00;100894.56;4995739;28;20211;-86
2023/05/17 00:42:29;;;;;;;4.43;0.50;;;;;;;7.20;100.00;100893.16;4987724;28;20700;-86
2023/05/17 00:44:55;;;;;;;1.33;1.27;;;;;;;7.25;100.00;100901.28;4997086;28;20180;-86
2023/05/17 00:47:20;;;;;;;0.90;0.90;;;;;;;7.32;100.00;100903.72;5013011;28;20189;-86
2023/05/17 00:49:45;;;;;;;0.30;0.30;;;;;;;7.27;100.00;100901.84;4995731;28;20226;-87
2023/05/17 00:52:11;;;;;;;1.57;1.23;;;;;;;7.24;100.00;100912.44;4995516;28;20177;-88
2023/05/17 00:54:36;;;;;;;5.40;2.13;;;;;;;7.20;100.00;100911.34;4987229;28;20185;-87
2023/05/17 00:57:03;;;;;;;0.63;0.50;;;;;;;7.19;100.00;100915.97;5004744;28;20650;-87
2023/05/17 00:59:28;;;;;;;1.00;0.97;;;;;;;7.14;100.00;100914.09;4995089;28;20236;-87
2023/05/17 01:01:54;;;;;;;0.33;0.27;;;;;;;7.11;100.00;100914.66;4987089;28;20180;-87
2023/05/17 01:04:20;;;;;;;4.57;1.10;;;;;;;7.09;100.00;100924.19;4988074;28;20248;-86
2023/05/17 01:06:45;;;;;;;1.40;1.33;;;;;;;7.05;100.00;100923.91;4995405;28;20216;-86
2023/05/17 01:09:10;;;;;;;1.40;1.13;;;;;;;7.00;100.00;100923.91;5013447;28;20211;-86
2023/05/17 01:11:55;;;;;;;16.47;1.03;;;;;;;6.99;100.00;100921.47;5012806;28;20678;-86
2023/05/17 01:15:00;;;;;;;2.13;1.90;;;;;;;6.99;100.00;100916.88;4994747;28;20192;-87
2023/05/17 01:17:31;;;;;;;0.73;0.73;;;;;;;6.99;100.00;100925.00;4990783;28;20188;-86
2023/05/17 01:20:18;;;;;;;1.43;1.33;;;;;;;6.95;100.00;100921.22;5000557;28;20206;-88
2023/05/17 01:22:52;;;;;;;1.70;1.03;;;;;;;6.93;100.00;100919.84;5016197;28;20177;-86
2023/05/17 01:25:23;;;;;;;0.57;0.57;;;;;;;6.89;100.00;100913.34;4984953;28;20660;-86
2023/05/17 01:27:50;;;;;;;1.13;0.80;;;;;;;6.89;100.00;100921.50;4989554;28;20180;-87
2023/05/17 01:30:19;;;;;;;1.30;0.57;;;;;;;6.92;100.00;100926.38;5008439;28;20215;-86
2023/05/17 01:32:45;;;;;;;0.37;0.37;;;;;;;6.89;100.00;100935.06;4980736;28;20381;-88
2023/05/17 01:35:11;;;;;;;0.10;0.10;;;;;;;6.82;100.00;100925.31;5002788;28;20185;-86
2023/05/17 01:37:37;;;;;;;0.70;0.70;;;;;;;6.77;100.00;100929.94;5016015;28;20191;-86
2023/05/17 01:40:04;;;;;;;1.00;0.90;;;;;;;6.75;100.00;100935.63;4990614;28;20200;-87
2023/05/17 01:42:31;;;;;;;7.07;1.23;;;;;;;6.79;100.00;100935.91;4998147;28;20229;-87
2023/05/17 01:45:07;;;;;;;3.30;1.80;;;;;;;6.78;100.00;100924.22;4998411;28;20183;-84
2023/05/17 01:47:42;;;;;;;12.20;2.00;;;;;;;6.79;100.00;100941.34;4989580;28;20210;-85
2023/05/17 01:50:11;;;;;;;0.90;0.87;;;;;;;6.79;100.00;100939.44;4990279;28;20231;-86
2023/05/17 01:52:46;;;;;;;1.00;0.70;;;;;;;6.79;100.00;100935.91;4998151;28;20184;-86
2023/05/17 01:55:15;;;;;;;0.70;0.70;;;;;;;6.77;100.00;100944.31;4997942;28;20176;-86
2023/05/17 01:57:43;;;;;;;3.20;0.70;;;;;;;6.75;100.00;100940.25;4997197;28;20191;-87
2023/05/17 02:00:10;;;;;;;1.10;1.10;;;;;;;6.76;100.00;100945.41;4997834;28;20208;-87
2023/05/17 02:02:36;;;;;;;0.73;0.73;;;;;;;6.77;100.00;100941.59;4997823;28;20180;-86
2023/05/17 02:05:01;;;;;;;0.47;0.43;;;;;;;6.83;100.00;100951.41;4998300;28;20187;-86
2023/05/17 02:07:26;;;;;;;0.53;0.30;;;;;;;6.83;100.00;100951.41;4997791;28;20211;-87
2023/05/17 02:09:52;;;;;;;12.80;1.53;;;;;;;6.84;100.00;100949.50;5008055;28;20216;-86
2023/05/17 02:12:17;;;;;;;0.97;0.97;;;;;;;6.83;100.00;100950.56;4991674;28;20276;-86
2023/05/17 02:14:42;;;;;;;1.73;1.63;;;;;;;6.85;100.00;100949.22;4996151;28;20264;-87
2023/05/17 02:17:08;;;;;;;1.60;0.20;;;;;;;6.93;100.00;100953.25;5014784;28;20271;-86
2023/05/17 02:19:33;;;;;;;1.57;1.57;;;;;;;6.99;100.00;100954.91;5006960;28;20205;-85
2023/05/17 02:21:59;;;;;;;6.60;0.77;;;;;;;7.04;100.00;100952.16;5011311;28;20185;-87
2023/05/17 02:24:24;;;;;;;0.10;0.10;;;;;;;7.09;100.00;100944.00;4992477;28;20215;-86
2023/05/17 02:26:49;;;;;;;2.83;1.03;;;;;;;7.12;100.00;100946.16;4997014;28;20251;-86
2023/05/17 02:29:15;;;;;;;0.70;0.70;;;;;;;7.21;100.00;100948.31;5007543;28;20310;-87
2023/05/17 02:31:40;;;;;;;15.47;3.20;;;;;;;7.25;100.00;100955.66;5015239;28;20230;-86
2023/05/17 02:34:05;;;;;;;2.43;2.23;;;;;;;7.28;100.00;100960.53;4992973;28;20320;-87
2023/05/17 02:36:31;;;;;;;1.17;1.17;;;;;;;7.29;100.00;100950.47;4994045;28;20192;-86
2023/05/17 02:38:57;;;;;;;1.60;1.03;;;;;;;7.32;100.00;100963.50;4989812;28;20295;-86
2023/05/17 02:41:22;;;;;;;0.97;0.80;;;;;;;7.36;100.00;100959.94;4989764;28;20212;-87
2023/05/17 02:43:48;;;;;;;1.93;1.73;;;;;;;7.43;100.00;100973.25;4989479;28;20282;-87
2023/05/17 02:46:13;;;;;;;2.83;1.03;;;;;;;7.46;100.00;100978.13;4996923;28;20194;-86
2023/05/17 02:48:38;;;;;;;2.17;1.93;;;;;;;7.52;100.00;100977.00;5006969;28;20259;-86
2023/05/17 02:51:04;;;;;;;0.00;0.00;;;;;;;7.60;100.00;100981.06;4996951;28;20217;-87
2023/05/17 02:53:29;;;;;;;8.73;1.60;;;;;;;7.66;100.00;100986.19;4989090;28;20189;-86
2023/05/17 02:55:56;;;;;;;0.97;0.93;;;;;;;7.70;100.00;100984.56;4985535;28;20232;-86
2023/05/17 02:58:23;;;;;;;1.90;1.70;;;;;;;7.74;100.00;100984.81;4992185;28;20216;-87
2023/05/17 03:00:48;;;;;;;3.30;1.73;;;;;;;7.78;100.00;100983.16;5006772;28;20205;-86
2023/05/17 03:03:17;;;;;;;1.93;1.83;;;;;;;7.84;100.00;100984.78;4997073;28;20728;-86
2023/05/17 03:05:42;;;;;;;19.17;1.57;;;;;;;7.89;100.00;100978.47;5014825;28;20534;-86
2023/05/17 03:08:07;;;;;;;0.20;0.20;;;;;;;7.92;100.00;100986.91;4991568;28;20177;-86
2023/05/17 03:10:33;;;;;;;1.63;1.53;;;;;;;7.97;100.00;100989.59;4993691;28;20208;-87
2023/05/17 03:12:58;;;;;;;5.40;1.83;;;;;;;8.00;100.00;100988.22;4988331;28;20188;-86
2023/05/17 03:15:25;;;;;;;0.60;0.60;;;;;;;8.02;100.00;100989.56;4995882;28;20199;-87
2023/05/17 03:17:51;;;;;;;6.47;1.53;;;;;;;8.01;100.00;100990.66;5013400;28;20488;-86
2023/05/17 03:20:17;;;;;;;8.20;0.83;;;;;;;8.03;100.00;100979.50;4989929;28;20209;-86
2023/05/17 03:22:42;;;;;;;0.23;0.20;;;;;;;8.05;100.00;100988.19;5012276;28;20669;-87
2023/05/17 03:25:10;;;;;;;0.63;0.63;;;;;;;8.05;100.00;100999.88;4992411;28;20648;-86
2023/05/17 03:27:35;;;;;;;1.00;0.80;;;;;;;8.05;100.00;100993.63;4994243;28;20644;-86
2023/05/17 03:30:01;;;;;;;2.57;1.60;;;;;;;7.99;100.00;101006.47;5002031;28;20216;-86
2023/05/17 03:32:29;;;;;;;0.30;0.30;;;;;;;7.94;100.00;101009.19;5002724;28;20251;-86
2023/05/17 03:34:55;;;;;;;0.80;0.80;;;;;;;7.84;100.00;101009.25;4989230;28;20181;-86
2023/05/17 03:37:23;;;;;;;3.90;1.23;;;;;;;7.78;100.00;101010.34;4997146;28;20189;-87
2023/05/17 03:39:48;;;;;;;0.50;0.50;;;;;;;7.75;100.00;101019.06;4996444;28;20212;-86
2023/05/17 03:42:13;;;;;;;1.90;1.40;;;;;;;7.64;100.00;101014.75;4989556;28;20188;-86
2023/05/17 03:44:39;;;;;;;4.23;0.23;;;;;;;7.59;100.00;101018.31;4996975;28;20196;-86
2023/05/17 03:47:05;;;;;;;0.57;0.57;;;;;;;7.55;100.00;101025.41;5014717;28;20218;-86
2023/05/17 03:49:33;;;;;;;0.73;0.70;;;;;;;7.56;100.00;101034.38;5014411;28;20216;-88
2023/05/17 03:51:58;;;;;;;4.30;0.70;;;;;;;7.49;100.00;101034.66;4995667;28;20185;-88
2023/05/17 03:54:23;;;;;;;0.40;0.07;;;;;;;7.41;100.00;101046.94;4988306;28;20184;-86
2023/05/17 03:56:49;;;;;;;0.23;0.23;;;;;;;7.37;100.00;101037.66;4995637;28;20669;-87
2023/05/17 03:59:17;;;;;;;1.27;1.00;;;;;;;7.31;100.00;101048.84;4983834;28;20259;-86
2023/05/17 04:01:44;;;;;;;0.93;0.33;;;;;;;7.30;100.00;101052.66;4994533;28;20275;-87
2023/05/17 04:04:10;;;;;;;3.60;1.90;;;;;;;7.25;100.00;101047.25;4983102;28;20188;-87
2023/05/17 04:06:35;;;;;;;11.27;2.23;;;;;;;7.25;100.00;101058.91;4996102;28;20235;-86
2023/05/17 04:09:04;;;;;;;0.63;0.47;;;;;;;7.23;100.00;101063.78;4996203;28;20220;-87
2023/05/17 04:11:29;;;;;;;0.87;0.87;;;;;;;7.22;100.00;101064.88;4996248;28;20581;-87
2023/05/17 04:13:55;;;;;;;5.77;2.83;;;;;;;7.18;100.00;101074.69;4996702;28;20192;-86
2023/05/17 04:16:23;;;;;;;0.40;0.40;;;;;;;7.19;100.00;101075.50;4995998;28;20760;-86
2023/05/17 04:18:51;;;;;;;0.93;0.93;;;;;;;7.16;100.00;101074.94;4996052;28;20212;-85
2023/05/17 04:21:20;;;;;;;1.23;1.13;;;;;;;7.19;100.00;101076.31;4987966;28;20208;-86
2023/05/17 04:23:45;;;;;;;0.63;0.60;;;;;;;7.23;100.00;101080.09;4993940;28;20184;-86
2023/05/17 04:26:10;;;;;;;0.80;0.80;;;;;;;7.23;100.00;101082.00;4992942;28;20197;-87
2023/05/17 04:28:36;;;;;;;0.50;0.50;;;;;;;7.23;100.00;101090.97;5003182;28;20196;-88
2023/05/17 04:31:01;;;;;;;0.93;0.93;;;;;;;7.24;100.00;101091.81;5002606;28;20212;-85
2023/05/17 04:33:29;;;;;;;1.67;1.47;;;;;;;7.24;100.00;101103.50;4984859;28;20193;-87
2023/05/17 04:35:55;;;;;;;0.10;0.10;;;;;;;7.25;100.00;101099.69;4993236;28;20232;-87
2023/05/17 04:38:21;;;;;;;4.27;0.70;;;;;;;7.29;100.00;101113.53;4992330;28;20208;-87
2023/05/17 04:40:50;;;;;;;13.27;2.50;;;;;;;7.36;100.00;101111.34;4997485;28;20212;-87
2023/05/17 04:43:15;;;;;;;0.87;0.87;;;;;;;7.35;100.00;101110.53;4997493;28;20599;-87
2023/05/17 04:45:40;;;;;;;4.13;1.33;;;;;;;7.40;100.00;101121.41;4999499;28;20197;-86
2023/05/17 04:48:08;;;;;;;0.17;0.17;;;;;;;7.42;100.00;101121.97;5012145;28;20172;-86
2023/05/17 04:50:34;;;;;;;1.37;1.33;;;;;;;7.44;100.00;101118.97;4993239;28;20211;-87
2023/05/17 04:52:59;;;;;;;2.83;2.10;;;;;;;7.46;100.00;101127.66;5018447;28;20176;-86
2023/05/17 04:55:25;;;;;;;2.17;1.10;;;;;;;7.49;100.00;101129.81;4993402;28;20271;-87
2023/05/17 04:57:51;;;;;;;1.73;1.60;;;;;;;7.51;100.00;101134.97;5000165;28;20193;-86
2023/05/17 05:00:17;;;;;;;0.17;0.17;;;;;;;7.57;100.00;101145.59;5010839;28;20260;-86
2023/05/17 05:02:42;;;;;;;4.87;1.50;;;;;;;7.62;100.00;101147.47;5019248;28;20184;-86
2023/05/17 05:05:08;;;;;;;0.30;0.30;;;;;;;7.64;100.00;101143.38;5000534;28;20541;-87
2023/05/17 05:07:34;;;;;;;0.50;0.50;;;;;;;7.67;100.00;101144.78;4985241;28;20181;-86
2023/05/17 05:10:00;;;;;;;0.63;0.60;;;;;;;7.68;100.00;101155.38;4975124;28;20209;-86
2023/05/17 05:12:25;;;;;;;2.07;1.00;;;;;;;7.71;100.00;101160.25;4998994;28;20185;-86
2023/05/17 05:14:51;;;;;;;7.20;1.13;;;;;;;7.74;100.00;101159.69;4988774;28;20190;-86
2023/05/17 05:17:16;;;;;;;0.80;0.80;;;;;;;7.76;100.00;101165.69;5012462;28;20188;-86
2023/05/17 05:19:41;;;;;;;0.83;0.57;;;;;;;7.78;100.00;101159.16;5008235;28;20218;-86
2023/05/17 05:22:07;;;;;;;1.67;0.33;;;;;;;7.81;100.00;101161.31;5006324;28;20208;-87
2023/05/17 05:24:32;;;;;;;5.83;1.47;;;;;;;7.84;100.00;101158.88;4997621;28;20655;-86
2023/05/17 05:26:57;;;;;;;0.50;0.50;;;;;;;7.86;100.00;101164.84;4988553;28;20658;-86
2023/05/17 05:29:23;;;;;;;0.43;0.43;;;;;;;7.92;100.00;101174.63;4988126;28;20177;-86
2023/05/17 05:31:48;;;;;;;1.40;0.57;;;;;;;7.96;100.00;101177.63;4996131;28;20199;-86
2023/05/17 05:34:13;;;;;;;1.00;0.93;;;;;;;7.96;100.00;101186.59;4988337;28;20647;-86
2023/05/17 05:36:38;;;;;;;1.13;1.03;;;;;;;7.97;100.00;101187.41;5006616;28;20177;-86
2023/05/17 05:39:04;;;;;;;1.80;1.20;;;;;;;7.96;100.00;101185.78;4990912;28;20197;-86
2023/05/17 05:41:30;;;;;;;6.60;0.50;;;;;;;7.99;100.00;101191.50;5001938;28;20579;-87
2023/05/17 05:43:55;;;;;;;4.80;1.13;;;;;;;8.00;100.00;101189.59;5011728;28;20180;-87
2023/05/17 05:46:20;;;;;;;3.23;0.83;;;;;;;7.94;100.00;101198.81;5002727;28;20263;-86
2023/05/17 05:48:46;;;;;;;4.07;1.03;;;;;;;7.94;100.00;101193.38;5016628;28;20188;-87
2023/05/17 05:51:11;;;;;;;11.27;2.17;;;;;;;7.98;100.00;101197.22;4998043;28;20204;-87
2023/05/17 05:53:37;;;;;;;16.87;2.20;;;;;;;8.06;100.00;101208.34;5007757;28;20185;-87
2023/05/17 05:56:03;;;;;;;4.30;1.70;;;;;;;8.05;100.00;101201.25;4989561;28;20199;-87
2023/05/17 05:58:29;;;;;;;10.13;1.13;;;;;;;8.11;100.00;101210.25;4989063;28;20221;-86
2023/05/17 06:00:56;;;;;;;0.20;0.20;;;;;;;8.24;100.00;101208.81;4989578;28;20232;-87
2023/05/17 06:03:21;;;;;;;0.17;0.10;;;;;;;8.25;100.00;101200.41;4998360;28;20210;-86
2023/05/17 06:05:46;;;;;;;3.00;1.63;;;;;;;8.29;98.50;101200.66;4990477;28;20730;-86
2023/05/17 06:08:12;;;;;;;1.70;0.63;;;;;;;8.31;96.62;101206.63;4990381;28;20187;-87
2023/05/17 06:10:37;;;;;;;0.10;0.10;;;;;;;8.33;95.80;101204.44;4998080;28;20204;-88
2023/05/17 06:13:02;;;;;;;0.03;0.03;;;;;;;8.40;94.37;101204.19;4990082;28;20180;-87
2023/05/17 06:15:27;;;;;;;2.43;1.30;;;;;;;8.37;93.36;101215.63;4989844;28;20233;-87
2023/05/17 06:17:53;;;;;;;0.20;0.20;;;;;;;8.34;93.73;101220.53;5006599;28;20721;-88
2023/05/17 06:20:18;;;;;;;0.00;0.00;;;;;;;8.28;93.43;101227.06;4997335;28;20200;-87
2023/05/17 06:22:43;;;;;;;0.53;0.20;;;;;;;8.24;92.82;101220.53;4988674;28;20250;-86
2023/05/17 06:25:10;;;;;;;0.43;0.20;;;;;;;8.32;92.66;101216.44;4983419;28;20184;-86
2023/05/17 06:27:35;;;;;;;0.13;0.13;;;;;;;8.34;92.30;101219.72;4978215;28;20185;-87
2023/05/17 06:30:01;;;;;;;0.00;0.00;;;;;;;8.29;90.77;101217.00;4982697;28;20697;-87
2023/05/17 06:32:26;;;;;;;0.00;0.00;;;;;;;8.30;92.23;101234.97;4996646;28;20568;-86
2023/05/17 06:34:51;;;;;;;6.70;0.43;;;;;;;8.30;92.33;101235.78;4996673;28;20262;-86
2023/05/17 06:37:17;;;;;;;1.90;1.70;;;;;;;8.30;93.60;101240.41;4999435;28;20188;-88
2023/05/17 06:39:42;;;;;;;0.00;0.00;;;;;;;8.22;92.91;101238.22;4992961;28;20213;-86
2023/05/17 06:42:07;;;;;;;3.00;0.67;;;;;;;8.19;92.75;101245.03;4992811;28;20212;-86
2023/05/17 06:44:33;;;;;;;0.10;0.10;;;;;;;8.26;90.95;101242.06;4982305;28;20561;-87
2023/05/17 06:46:59;;;;;;;1.90;0.83;;;;;;;8.45;90.60;101248.56;4995880;28;20211;-86
2023/05/17 06:49:25;;;;;;;1.27;1.20;;;;;;;8.57;89.73;101250.97;4996127;28;20529;-86
2023/05/17 06:51:51;;;;;;;5.07;1.00;;;;;;;8.50;87.33;101247.72;4987947;28;20254;-86
2023/05/17 06:54:18;;;;;;;0.00;0.00;;;;;;;8.58;87.50;101247.97;5005726;28;20666;-87
2023/05/17 06:56:43;;;;;;;17.50;1.87;;;;;;;8.59;87.03;101248.78;4996984;28;20188;-85
2023/05/17 06:59:09;;;;;;;0.10;0.10;;;;;;;8.72;86.53;101261.00;4997468;28;20210;-87
2023/05/17 07:01:34;;;;;;;7.90;0.93;;;;;;;8.83;86.75;101262.59;5013768;28;20746;-87
2023/05/17 07:04:00;;;;;;;1.43;1.33;;;;;;;8.88;85.44;101262.56;4996571;28;20184;-87
2023/05/17 07:06:25;;;;;;;0.00;0.00;;;;;;;8.97;85.36;101263.59;4989150;28;20187;-86
2023/05/17 07:08:50;;;;;;;4.93;0.43;;;;;;;9.02;83.68;101268.22;4997124;28;20211;-87
2023/05/17 07:11:15;;;;;;;3.03;2.73;;;;;;;9.15;84.23;101273.03;5014176;28;20192;-86
2023/05/17 07:13:41;;;;;;;0.00;0.00;;;;;;;9.02;81.36;101262.75;4996884;28;20622;-86
2023/05/17 07:16:07;;;;;;;0.00;0.00;;;;;;;9.02;80.42;101271.75;4988612;28;20180;-88
2023/05/17 07:18:33;;;;;;;0.30;0.10;;;;;;;9.06;79.65;101269.28;4996233;28;20299;-86
2023/05/17 07:20:58;;;;;;;1.03;1.03;;;;;;;9.04;78.94;101268.75;4992658;28;20284;-86
2023/05/17 07:23:23;;;;;;;0.00;0.00;;;;;;;9.01;76.08;101267.41;5009522;28;20531;-86
2023/05/17 07:25:49;;;;;;;6.03;2.10;;;;;;;8.91;75.71;101265.53;5013450;28;20188;-86
2023/05/17 07:28:15;;;;;;;0.07;0.07;;;;;;;8.92;77.40;101283.50;4998930;28;20173;-87
2023/05/17 07:30:40;;;;;;;0.40;0.40;;;;;;;9.05;77.45;101284.81;5009297;28;20212;-86
2023/05/17 07:33:06;;;;;;;0.73;0.73;;;;;;;9.27;76.38;101275.44;4989077;28;20674;-86
2023/05/17 07:35:31;;;;;;;0.93;0.93;;;;;;;9.34;74.24;101268.56;4995197;28;20203;-87
2023/05/17 07:37:56;;;;;;;0.10;0.10;;;;;;;9.36;74.20;101269.09;4995409;28;20275;-86
2023/05/17 07:40:22;;;;;;;0.57;0.30;;;;;;;9.37;73.64;101269.91;4987155;28;20599;-86
2023/05/17 07:42:47;;;;;;;3.40;0.40;;;;;;;9.38;71.60;101266.88;5012700;28;20210;-86
2023/05/17 07:45:12;;;;;;;0.00;0.00;;;;;;;9.54;71.60;101281.22;5012690;28;20188;-86
2023/05/17 07:47:38;;;;;;;0.20;0.20;;;;;;;9.78;71.16;101271.22;4994024;28;20199;-86
2023/05/17 07:50:04;;;;;;;1.37;1.27;;;;;;;9.78;69.57;101268.50;4997858;28;20637;-86
2023/05/17 07:52:29;;;;;;;1.50;0.10;;;;;;;9.73;69.09;101274.00;4987138;28;20181;-86
2023/05/17 07:54:54;;;;;;;0.20;0.20;;;;;;;9.60;68.45;101276.56;5014283;28;20208;-86
2023/05/17 07:57:19;;;;;;;1.03;0.50;;;;;;;9.61;68.85;101278.19;5013644;28;20271;-86
2023/05/17 07:59:45;;;;;;;0.00;0.00;;;;;;;9.59;67.79;101272.22;4986611;28;20208;-87
2023/05/17 08:02:10;;;;;;;3.30;1.60;;;;;;;9.69;67.39;101288.50;4991443;28;20219;-88
2023/05/17 08:04:35;;;;;;;0.00;0.00;;;;;;;9.89;66.89;101293.00;5006470;28;20259;-87
2023/05/17 08:07:01;;;;;;;0.77;0.77;;;;;;;10.04;67.47;101296.41;5013880;28;20271;-87
2023/05/17 08:09:27;;;;;;;0.30;0.30;;;;;;;10.03;66.36;101280.31;4997062;28;20180;-87
2023/05/17 08:11:52;;;;;;;0.00;0.00;;;;;;;10.10;66.79;101292.50;4988523;28;20250;-86
2023/05/17 08:14:20;;;;;;;0.30;0.30;;;;;;;10.27;67.27;101297.59;5006175;28;20191;-87
2023/05/17 08:16:45;;;;;;;0.00;0.00;;;;;;;10.30;67.49;101299.75;5014640;28;20184;-87
2023/05/17 08:19:12;;;;;;;0.30;0.27;;;;;;;10.13;65.44;101283.75;4996993;28;20229;-86
2023/05/17 08:21:38;;;;;;;0.00;0.00;;;;;;;9.89;65.27;101280.16;4996675;28;20196;-88
2023/05/17 08:24:04;;;;;;;0.03;0.00;;;;;;;10.03;66.10;101285.78;5014390;28;20180;-88
2023/05/17 08:26:29;;;;;;;0.00;0.00;;;;;;;10.21;63.76;101276.03;4988855;28;20188;-89
2023/05/17 08:28:55;;;;;;;1.17;1.07;;;;;;;10.46;62.59;101256.69;4998407;28;20184;-87
2023/05/17 08:31:20;;;;;;;0.00;0.00;;;;;;;10.57;62.18;101260.94;5013701;28;20227;-88
2023/05/17 08:33:45;;;;;;;0.10;0.10;;;;;;;10.62;63.42;101284.66;4980340;28;20207;-87
2023/05/17 08:36:11;;;;;;;1.37;0.63;;;;;;;10.44;63.90;101294.41;5013409;28;20212;-86
2023/05/17 08:38:36;;;;;;;2.03;0.90;;;;;;;10.13;64.56;101291.97;4997242;28;20204;-87
2023/05/17 08:41:01;;;;;;;0.00;0.00;;;;;;;10.11;65.43;101291.41;4998826;28;20231;-86
2023/05/17 08:43:32;;;;;;;1.20;0.47;;;;;;;10.18;64.98;101293.81;4997648;28;20188;-87
2023/05/17 08:45:58;;;;;;;0.30;0.30;;;;;;;10.37;65.72;101307.59;5011804;28;20204;-86
2023/05/17 08:48:26;;;;;;;0.10;0.10;;;;;;;10.34;64.69;101289.84;4994875;28;20652;-87
2023/05/17 08:50:54;;;;;;;0.73;0.63;;;;;;;10.33;64.41;101296.44;4986164;28;20209;-87
2023/05/17 08:53:20;;;;;;;1.60;0.30;;;;;;;10.30;64.06;101290.72;5000490;28;20208;-87
2023/05/17 08:55:47;;;;;;;0.20;0.20;;;;;;;10.19;65.96;101302.81;5003694;28;20204;-85
2023/05/17 08:58:16;;;;;;;0.20;0.10;;;;;;;10.10;65.63;101302.63;4980958;28;20197;-88
2023/05/17 09:00:42;;;;;;;16.23;0.70;;;;;;;9.99;65.42;101310.09;4992960;28;20215;-86
2023/05/17 09:03:09;;;;;;;1.37;0.60;;;;;;;10.00;66.29;101314.47;4987063;28;20211;-87
2023/05/17 09:05:35;;;;;;;0.60;0.50;;;;;;;10.01;66.43;101313.34;4994493;28;20185;-87
2023/05/17 09:08:01;;;;;;;0.07;0.07;;;;;;;10.11;65.93;101313.25;4994350;28;20184;-86
2023/05/17 09:10:26;;;;;;;2.40;0.43;;;;;;;10.25;64.05;101296.22;4994606;28;20640;-87
2023/05/17 09:12:52;;;;;;;2.63;1.60;;;;;;;10.41;62.15;101292.22;4994648;28;20212;-87
2023/05/17 09:15:19;;;;;;;24.90;2.17;;;;;;;11.00;61.86;101294.56;5012091;28;20177;-87
2023/05/17 09:17:52;;;;;;;0.87;0.40;;;;;;;10.90;59.32;101264.63;4986432;28;20343;-86
2023/05/17 09:20:35;;;;;;;0.00;0.00;;;;;;;11.07;60.91;101285.19;5003846;28;20228;-87
2023/05/17 09:23:05;;;;;;;0.33;0.33;;;;;;;10.87;60.41;101289.00;4976420;28;20188;-87
2023/05/17 09:25:31;;;;;;;0.17;0.00;;;;;;;10.91;61.07;101298.25;4994272;28;20234;-88
2023/05/17 09:28:01;;;;;;;0.00;0.00;;;;;;;10.64;59.44;101279.69;4996942;28;20180;-86
2023/05/17 09:30:28;;;;;;;2.47;0.57;;;;;;;10.73;60.43;101284.25;4989115;28;20216;-88
2023/05/17 09:32:54;;;;;;;0.00;0.00;;;;;;;10.79;60.21;101293.19;4997384;28;20238;-86
2023/05/17 09:35:30;;;;;;;3.60;0.20;;;;;;;10.80;61.10;101296.72;5017221;28;20180;-86
2023/05/17 09:38:11;;;;;;;0.73;0.30;;;;;;;10.62;61.22;101296.38;4999839;28;20183;-87
2023/05/17 09:40:40;;;;;;;0.20;0.20;;;;;;;10.63;61.56;101302.66;5008860;28;20713;-86
2023/05/17 09:43:06;;;;;;;1.07;0.50;;;;;;;10.72;62.28;101323.63;4996384;28;20210;-87
2023/05/17 09:45:32;;;;;;;0.30;0.30;;;;;;;10.62;62.31;101317.44;5001047;28;20595;-86
2023/05/17 09:48:10;;;;;;;2.20;1.50;;;;;;;10.26;61.93;101300.59;5014938;28;20191;-87
2023/05/17 09:50:36;;;;;;;0.57;0.50;;;;;;;10.54;63.48;101323.53;4981142;28;20675;-86
2023/05/17 09:53:01;;;;;;;0.10;0.10;;;;;;;10.59;63.64;101320.75;4985861;28;20192;-87
2023/05/17 09:55:27;;;;;;;0.97;0.97;;;;;;;10.36;63.93;101316.88;4993928;28;20267;-86
2023/05/17 09:57:52;;;;;;;0.87;0.87;;;;;;;10.70;64.63;101328.56;4989054;28;20192;-86
2023/05/17 10:00:21;;;;;;;8.87;0.77;;;;;;;10.89;64.56;101322.31;5015005;28;20200;-86
2023/05/17 10:02:48;;;;;;;0.77;0.77;;;;;;;11.07;63.44;101318.81;4989013;28;20280;-86
2023/05/17 10:05:16;;;;;;;0.00;0.00;;;;;;;11.06;62.91;101317.19;4989680;28;20186;-87
2023/05/17 10:07:44;;;;;;;0.10;0.10;;;;;;;11.16;62.24;101306.13;4989638;28;20246;-88
2023/05/17 10:10:12;;;;;;;2.27;0.77;;;;;;;10.91;59.78;101276.38;5010922;28;20700;-87
2023/05/17 10:12:39;;;;;;;0.00;0.00;;;;;;;11.15;61.62;101298.22;4999383;28;20287;-87
2023/05/17 10:15:06;;;;;;;1.03;0.73;;;;;;;11.71;60.31;101291.91;5016760;28;20176;-86
2023/05/17 10:17:34;;;;;;;1.17;0.90;;;;;;;12.11;59.74;101293.19;5015586;28;20220;-86
2023/05/17 10:20:00;;;;;;;0.60;0.47;;;;;;;11.69;56.57;101266.75;5004141;28;20206;-86
2023/05/17 10:22:26;;;;;;;1.80;0.40;;;;;;;11.41;57.77;101279.50;5012316;28;20184;-86
2023/05/17 10:24:51;;;;;;;9.63;0.90;;;;;;;11.30;59.53;101290.59;4990373;28;20226;-86
2023/05/17 10:27:17;;;;;;;7.87;1.43;;;;;;;11.15;58.17;101274.41;4996816;28;20216;-87
2023/05/17 10:29:43;;;;;;;8.90;0.47;;;;;;;11.30;59.95;101285.13;4996957;28;20180;-86
2023/05/17 10:32:09;;;;;;;4.87;1.13;;;;;;;11.24;58.94;101282.75;5014226;28;20196;-85
2023/05/17 10:34:37;;;;;;;1.97;1.27;;;;;;;11.15;59.04;101276.34;4996525;28;20195;-87
2023/05/17 10:37:03;;;;;;;1.20;0.60;;;;;;;11.26;58.89;101284.06;4996263;28;20185;-87
2023/05/17 10:39:33;;;;;;;8.30;0.77;;;;;;;11.73;59.50;101282.31;4997957;28;20734;-88
2023/05/17 10:42:01;;;;;;;6.83;1.37;;;;;;;11.96;57.91;101282.50;4990227;28;20180;-86
2023/05/17 10:44:29;;;;;;;2.37;1.10;;;;;;;12.00;57.09;101286.25;4995730;28;20246;-86
2023/05/17 10:46:56;;;;;;;0.00;0.00;;;;;;;12.00;56.52;101287.06;4996078;28;20599;-87
2023/05/17 10:49:40;;;;;;;0.50;0.50;;;;;;;12.09;56.96;101290.75;4989348;28;20177;-86
2023/05/17 10:52:14;;;;;;;5.47;1.03;;;;;;;11.72;56.90;101282.59;4981520;28;20184;-87
2023/05/17 10:54:42;;;;;;;1.13;0.93;;;;;;;11.62;56.96;101287.13;5013829;28;20177;-87
2023/05/17 10:57:17;;;;;;;0.00;0.00;;;;;;;11.77;57.99;101283.31;5013256;28;20619;-87
2023/05/17 10:59:56;;;;;;;0.00;0.00;;;;;;;11.66;58.04;101279.13;4994289;28;20212;-86
2023/05/17 11:02:23;;;;;;;0.57;0.57;;;;;;;11.84;57.95;101283.75;4985336;28;20741;-86
2023/05/17 11:04:54;;;;;;;0.63;0.30;;;;;;;11.86;56.46;101267.88;4986256;28;20192;-86
2023/05/17 11:07:23;;;;;;;12.90;1.43;;;;;;;12.03;56.51;101278.25;4994431;28;20546;-85
2023/05/17 11:10:11;;;;;;;2.43;0.83;;;;;;;12.36;57.37;101276.28;5016083;28;20609;-85
2023/05/17 11:12:41;;;;;;;0.00;0.00;;;;;;;12.43;55.75;101270.41;5013852;28;20732;-85
2023/05/17 11:15:09;;;;;;;0.70;0.70;;;;;;;12.24;55.34;101270.47;4995735;28;20549;-85
2023/05/17 11:17:45;;;;;;;9.77;9.13;;;;;;;12.18;54.62;101266.22;5013938;28;20322;-85
2023/05/17 11:20:13;;;;;;;1.97;0.73;;;;;;;12.30;55.26;101273.97;4995614;28;20215;-86
2023/05/17 11:23:03;;;;;;;4.90;0.73;;;;;;;12.44;53.83;101258.31;4995798;28;20226;-85
2023/05/17 11:25:30;;;;;;;0.00;0.00;;;;;;;12.52;53.38;101254.88;5005754;28;20263;-86